sensor_id;sensor_type;location;lat;lon;timestamp;P1;durP1;ratioP1;P2;durP2;ratioP2
82635;SDS011;72317;37.280;-121.948;2024-01-27T00:03:27;4.43;;;1.10;;
82635;SDS011;72317;37.280;-121.948;2024-01-27T00:08:27;2.90;;;0.80;;
82635;SDS011;72317;37.280;-121.948;2024-01-27T00:13:28;4.85;;;1.00;;
82635;SDS011;72317;37.280;-121.948;2024-01-27T00:18:29;2.47;;;0.70;;
82635;SDS011;72317;37.280;-121.948;2024-01-27T00:23:30;4.55;;;0.80;;
82635;SDS011;72317;37.280;-121.948;2024-01-27T00:28:31;3.25;;;0.60;;
82635;SDS011;72317;37.280;-121.948;2024-01-27T00:33:31;3.95;;;0.75;;
82635;SDS011;72317;37.280;-121.948;2024-01-27T00:38:32;3.95;;;0.85;;
82635;SDS011;72317;37.280;-121.948;2024-01-27T00:43:33;5.00;;;1.05;;
82635;SDS011;72317;37.280;-121.948;2024-01-27T00:48:34;4.05;;;1.00;;
82635;SDS011;72317;37.280;-121.948;2024-01-27T00:53:34;6.45;;;1.00;;
82635;SDS011;72317;37.280;-121.948;2024-01-27T00:58:35;3.60;;;1.00;;
82635;SDS011;72317;37.280;-121.948;2024-01-27T01:03:36;6.15;;;0.93;;
82635;SDS011;72317;37.280;-121.948;2024-01-27T01:08:37;5.40;;;0.80;;
82635;SDS011;72317;37.280;-121.948;2024-01-27T01:13:37;3.85;;;0.65;;
82635;SDS011;72317;37.280;-121.948;2024-01-27T01:18:38;7.78;;;0.98;;
82635;SDS011;72317;37.280;-121.948;2024-01-27T01:23:39;2.47;;;0.80;;
82635;SDS011;72317;37.280;-121.948;2024-01-27T01:28:40;6.93;;;1.33;;
82635;SDS011;72317;37.280;-121.948;2024-01-27T01:33:40;3.42;;;1.02;;
82635;SDS011;72317;37.280;-121.948;2024-01-27T01:38:41;6.70;;;1.00;;
82635;SDS011;72317;37.280;-121.948;2024-01-27T01:43:42;3.40;;;0.77;;
82635;SDS011;72317;37.280;-121.948;2024-01-27T01:48:43;7.05;;;1.35;;
82635;SDS011;72317;37.280;-121.948;2024-01-27T01:53:45;6.60;;;0.95;;
82635;SDS011;72317;37.280;-121.948;2024-01-27T01:58:48;6.95;;;1.30;;
82635;SDS011;72317;37.280;-121.948;2024-01-27T02:03:52;5.53;;;1.25;;
82635;SDS011;72317;37.280;-121.948;2024-01-27T02:08:53;3.47;;;1.20;;
82635;SDS011;72317;37.280;-121.948;2024-01-27T02:13:54;5.93;;;1.70;;
82635;SDS011;72317;37.280;-121.948;2024-01-27T02:18:55;7.68;;;1.48;;
82635;SDS011;72317;37.280;-121.948;2024-01-27T02:23:55;10.13;;;1.90;;
82635;SDS011;72317;37.280;-121.948;2024-01-27T02:28:56;6.43;;;1.63;;
82635;SDS011;72317;37.280;-121.948;2024-01-27T02:33:57;7.95;;;2.00;;
82635;SDS011;72317;37.280;-121.948;2024-01-27T02:38:58;7.22;;;1.85;;
82635;SDS011;72317;37.280;-121.948;2024-01-27T02:43:59;4.15;;;1.83;;
82635;SDS011;72317;37.280;-121.948;2024-01-27T02:48:59;4.18;;;1.40;;
82635;SDS011;72317;37.280;-121.948;2024-01-27T02:54:00;2.65;;;1.40;;
82635;SDS011;72317;37.280;-121.948;2024-01-27T02:59:01;4.28;;;1.63;;
82635;SDS011;72317;37.280;-121.948;2024-01-27T03:04:02;5.45;;;1.35;;
82635;SDS011;72317;37.280;-121.948;2024-01-27T03:09:03;5.18;;;1.30;;
82635;SDS011;72317;37.280;-121.948;2024-01-27T03:14:04;3.17;;;1.30;;
82635;SDS011;72317;37.280;-121.948;2024-01-27T03:19:05;3.17;;;1.33;;
82635;SDS011;72317;37.280;-121.948;2024-01-27T03:24:05;6.57;;;1.70;;
82635;SDS011;72317;37.280;-121.948;2024-01-27T03:29:06;6.10;;;1.35;;
82635;SDS011;72317;37.280;-121.948;2024-01-27T03:34:07;4.82;;;1.50;;
82635;SDS011;72317;37.280;-121.948;2024-01-27T03:39:08;3.42;;;1.45;;
82635;SDS011;72317;37.280;-121.948;2024-01-27T03:44:09;6.40;;;1.80;;
82635;SDS011;72317;37.280;-121.948;2024-01-27T03:49:09;3.08;;;1.23;;
82635;SDS011;72317;37.280;-121.948;2024-01-27T03:54:10;5.78;;;1.85;;
82635;SDS011;72317;37.280;-121.948;2024-01-27T03:59:11;5.22;;;1.65;;
82635;SDS011;72317;37.280;-121.948;2024-01-27T04:04:12;6.40;;;2.10;;
82635;SDS011;72317;37.280;-121.948;2024-01-27T04:09:13;4.18;;;2.05;;
82635;SDS011;72317;37.280;-121.948;2024-01-27T04:14:14;6.13;;;1.73;;
82635;SDS011;72317;37.280;-121.948;2024-01-27T04:19:14;3.47;;;1.27;;
82635;SDS011;72317;37.280;-121.948;2024-01-27T04:24:15;4.22;;;1.38;;
82635;SDS011;72317;37.280;-121.948;2024-01-27T04:29:16;2.28;;;1.50;;
82635;SDS011;72317;37.280;-121.948;2024-01-27T04:34:17;2.90;;;1.15;;
82635;SDS011;72317;37.280;-121.948;2024-01-27T04:39:18;2.90;;;1.30;;
82635;SDS011;72317;37.280;-121.948;2024-01-27T04:44:18;8.35;;;2.00;;
82635;SDS011;72317;37.280;-121.948;2024-01-27T04:49:19;5.68;;;1.48;;
82635;SDS011;72317;37.280;-121.948;2024-01-27T04:54:20;3.25;;;1.52;;
82635;SDS011;72317;37.280;-121.948;2024-01-27T04:59:21;3.80;;;1.45;;
82635;SDS011;72317;37.280;-121.948;2024-01-27T05:04:21;6.70;;;1.65;;
82635;SDS011;72317;37.280;-121.948;2024-01-27T05:09:22;3.95;;;1.50;;
82635;SDS011;72317;37.280;-121.948;2024-01-27T05:14:23;4.45;;;1.50;;
82635;SDS011;72317;37.280;-121.948;2024-01-27T05:19:24;3.42;;;1.63;;
82635;SDS011;72317;37.280;-121.948;2024-01-27T05:24:25;8.80;;;1.75;;
82635;SDS011;72317;37.280;-121.948;2024-01-27T05:29:28;5.05;;;1.65;;
82635;SDS011;72317;37.280;-121.948;2024-01-27T05:34:29;3.45;;;1.25;;
82635;SDS011;72317;37.280;-121.948;2024-01-27T05:39:30;6.93;;;1.42;;
82635;SDS011;72317;37.280;-121.948;2024-01-27T05:44:31;2.42;;;1.20;;
82635;SDS011;72317;37.280;-121.948;2024-01-27T05:49:31;4.47;;;1.40;;
82635;SDS011;72317;37.280;-121.948;2024-01-27T05:54:34;3.05;;;1.48;;
82635;SDS011;72317;37.280;-121.948;2024-01-27T05:59:34;4.32;;;1.42;;
82635;SDS011;72317;37.280;-121.948;2024-01-27T06:04:35;6.57;;;1.40;;
82635;SDS011;72317;37.280;-121.948;2024-01-27T06:09:39;2.83;;;1.00;;
82635;SDS011;72317;37.280;-121.948;2024-01-27T06:14:40;6.43;;;1.20;;
82635;SDS011;72317;37.280;-121.948;2024-01-27T06:19:41;6.95;;;1.70;;
82635;SDS011;72317;37.280;-121.948;2024-01-27T06:24:44;6.75;;;1.67;;
82635;SDS011;72317;37.280;-121.948;2024-01-27T06:29:45;5.38;;;1.70;;
82635;SDS011;72317;37.280;-121.948;2024-01-27T06:34:46;5.65;;;1.70;;
82635;SDS011;72317;37.280;-121.948;2024-01-27T06:39:48;5.47;;;1.50;;
82635;SDS011;72317;37.280;-121.948;2024-01-27T06:44:49;5.30;;;1.65;;
82635;SDS011;72317;37.280;-121.948;2024-01-27T06:49:50;2.47;;;1.30;;
82635;SDS011;72317;37.280;-121.948;2024-01-27T06:54:50;2.60;;;1.17;;
82635;SDS011;72317;37.280;-121.948;2024-01-27T06:59:51;4.57;;;0.98;;
82635;SDS011;72317;37.280;-121.948;2024-01-27T07:04:54;5.53;;;1.13;;
82635;SDS011;72317;37.280;-121.948;2024-01-27T07:09:56;2.50;;;1.00;;
82635;SDS011;72317;37.280;-121.948;2024-01-27T07:14:57;5.10;;;1.23;;
82635;SDS011;72317;37.280;-121.948;2024-01-27T07:19:58;3.72;;;1.20;;
82635;SDS011;72317;37.280;-121.948;2024-01-27T07:24:59;4.32;;;1.00;;
82635;SDS011;72317;37.280;-121.948;2024-01-27T07:29:59;2.75;;;1.15;;
82635;SDS011;72317;37.280;-121.948;2024-01-27T07:35:01;9.93;;;1.30;;
82635;SDS011;72317;37.280;-121.948;2024-01-27T07:40:02;4.10;;;1.80;;
82635;SDS011;72317;37.280;-121.948;2024-01-27T07:45:03;2.88;;;1.77;;
82635;SDS011;72317;37.280;-121.948;2024-01-27T07:50:05;4.18;;;1.88;;
82635;SDS011;72317;37.280;-121.948;2024-01-27T07:55:06;6.20;;;2.17;;
82635;SDS011;72317;37.280;-121.948;2024-01-27T08:00:07;5.97;;;2.10;;
82635;SDS011;72317;37.280;-121.948;2024-01-27T08:05:08;5.57;;;2.10;;
82635;SDS011;72317;37.280;-121.948;2024-01-27T08:10:09;4.35;;;1.88;;
82635;SDS011;72317;37.280;-121.948;2024-01-27T08:15:10;3.63;;;2.25;;
82635;SDS011;72317;37.280;-121.948;2024-01-27T08:20:12;2.88;;;1.52;;
82635;SDS011;72317;37.280;-121.948;2024-01-27T08:25:13;4.82;;;1.92;;
82635;SDS011;72317;37.280;-121.948;2024-01-27T08:30:14;4.78;;;1.50;;
82635;SDS011;72317;37.280;-121.948;2024-01-27T08:35:14;4.68;;;1.42;;
82635;SDS011;72317;37.280;-121.948;2024-01-27T08:40:15;2.25;;;1.33;;
82635;SDS011;72317;37.280;-121.948;2024-01-27T08:45:16;4.78;;;1.67;;
82635;SDS011;72317;37.280;-121.948;2024-01-27T08:50:17;6.30;;;1.45;;
82635;SDS011;72317;37.280;-121.948;2024-01-27T08:55:18;2.70;;;1.27;;
82635;SDS011;72317;37.280;-121.948;2024-01-27T09:00:19;2.38;;;1.00;;
82635;SDS011;72317;37.280;-121.948;2024-01-27T09:05:20;3.10;;;1.00;;
82635;SDS011;72317;37.280;-121.948;2024-01-27T09:10:21;2.63;;;1.10;;
82635;SDS011;72317;37.280;-121.948;2024-01-27T09:15:21;4.15;;;1.10;;
82635;SDS011;72317;37.280;-121.948;2024-01-27T09:20:22;2.38;;;0.93;;
82635;SDS011;72317;37.280;-121.948;2024-01-27T09:25:23;3.65;;;1.08;;
82635;SDS011;72317;37.280;-121.948;2024-01-27T09:30:24;2.60;;;0.93;;
82635;SDS011;72317;37.280;-121.948;2024-01-27T09:35:24;3.67;;;1.23;;
82635;SDS011;72317;37.280;-121.948;2024-01-27T09:40:25;3.13;;;0.93;;
82635;SDS011;72317;37.280;-121.948;2024-01-27T09:45:26;4.15;;;1.10;;
82635;SDS011;72317;37.280;-121.948;2024-01-27T09:50:27;2.30;;;1.15;;
82635;SDS011;72317;37.280;-121.948;2024-01-27T09:55:28;6.18;;;1.10;;
82635;SDS011;72317;37.280;-121.948;2024-01-27T10:00:28;3.42;;;1.23;;
82635;SDS011;72317;37.280;-121.948;2024-01-27T10:05:30;4.70;;;1.20;;
82635;SDS011;72317;37.280;-121.948;2024-01-27T10:10:32;6.13;;;1.30;;
82635;SDS011;72317;37.280;-121.948;2024-01-27T10:15:33;5.75;;;1.08;;
82635;SDS011;72317;37.280;-121.948;2024-01-27T10:20:34;3.30;;;0.95;;
82635;SDS011;72317;37.280;-121.948;2024-01-27T10:25:38;3.35;;;1.30;;
82635;SDS011;72317;37.280;-121.948;2024-01-27T10:30:39;1.33;;;0.90;;
82635;SDS011;72317;37.280;-121.948;2024-01-27T10:35:43;3.95;;;1.20;;
82635;SDS011;72317;37.280;-121.948;2024-01-27T10:40:44;3.85;;;1.23;;
82635;SDS011;72317;37.280;-121.948;2024-01-27T10:45:45;3.50;;;1.15;;
82635;SDS011;72317;37.280;-121.948;2024-01-27T10:50:46;2.97;;;1.10;;
82635;SDS011;72317;37.280;-121.948;2024-01-27T10:55:48;4.60;;;1.17;;
82635;SDS011;72317;37.280;-121.948;2024-01-27T11:00:56;3.80;;;1.13;;
82635;SDS011;72317;37.280;-121.948;2024-01-27T11:05:59;3.20;;;1.17;;
82635;SDS011;72317;37.280;-121.948;2024-01-27T11:11:01;2.60;;;1.45;;
82635;SDS011;72317;37.280;-121.948;2024-01-27T11:16:03;4.00;;;1.10;;
82635;SDS011;72317;37.280;-121.948;2024-01-27T11:21:04;7.93;;;1.40;;
82635;SDS011;72317;37.280;-121.948;2024-01-27T11:26:05;4.03;;;1.05;;
82635;SDS011;72317;37.280;-121.948;2024-01-27T11:31:07;4.95;;;1.13;;
82635;SDS011;72317;37.280;-121.948;2024-01-27T11:36:14;4.40;;;1.23;;
82635;SDS011;72317;37.280;-121.948;2024-01-27T11:41:26;3.90;;;1.52;;
82635;SDS011;72317;37.280;-121.948;2024-01-27T11:46:30;3.47;;;1.15;;
82635;SDS011;72317;37.280;-121.948;2024-01-27T11:51:31;5.43;;;1.20;;
82635;SDS011;72317;37.280;-121.948;2024-01-27T11:56:31;2.80;;;0.85;;
82635;SDS011;72317;37.280;-121.948;2024-01-27T12:01:32;2.63;;;1.20;;
82635;SDS011;72317;37.280;-121.948;2024-01-27T12:06:33;4.38;;;1.40;;
82635;SDS011;72317;37.280;-121.948;2024-01-27T12:11:34;3.20;;;1.10;;
82635;SDS011;72317;37.280;-121.948;2024-01-27T12:16:34;5.68;;;1.10;;
82635;SDS011;72317;37.280;-121.948;2024-01-27T12:21:36;7.22;;;1.10;;
82635;SDS011;72317;37.280;-121.948;2024-01-27T12:26:36;2.63;;;1.02;;
82635;SDS011;72317;37.280;-121.948;2024-01-27T12:31:37;1.13;;;0.70;;
82635;SDS011;72317;37.280;-121.948;2024-01-27T12:36:41;3.25;;;1.08;;
82635;SDS011;72317;37.280;-121.948;2024-01-27T12:41:42;2.60;;;1.00;;
82635;SDS011;72317;37.280;-121.948;2024-01-27T12:46:43;1.52;;;0.77;;
82635;SDS011;72317;37.280;-121.948;2024-01-27T12:51:44;3.42;;;0.75;;
82635;SDS011;72317;37.280;-121.948;2024-01-27T12:56:45;2.72;;;0.70;;
82635;SDS011;72317;37.280;-121.948;2024-01-27T13:01:45;3.38;;;0.80;;
82635;SDS011;72317;37.280;-121.948;2024-01-27T13:06:46;3.42;;;0.60;;
82635;SDS011;72317;37.280;-121.948;2024-01-27T13:11:47;0.57;;;0.57;;
82635;SDS011;72317;37.280;-121.948;2024-01-27T13:16:48;1.65;;;0.73;;
82635;SDS011;72317;37.280;-121.948;2024-01-27T13:21:49;1.45;;;0.70;;
82635;SDS011;72317;37.280;-121.948;2024-01-27T13:26:49;3.22;;;0.50;;
82635;SDS011;72317;37.280;-121.948;2024-01-27T13:31:50;3.83;;;0.90;;
82635;SDS011;72317;37.280;-121.948;2024-01-27T13:36:51;4.60;;;0.70;;
82635;SDS011;72317;37.280;-121.948;2024-01-27T13:41:52;2.13;;;0.90;;
82635;SDS011;72317;37.280;-121.948;2024-01-27T13:46:52;1.88;;;1.00;;
82635;SDS011;72317;37.280;-121.948;2024-01-27T13:51:53;1.77;;;0.82;;
82635;SDS011;72317;37.280;-121.948;2024-01-27T13:56:54;1.90;;;0.80;;
82635;SDS011;72317;37.280;-121.948;2024-01-27T14:01:55;2.05;;;0.70;;
82635;SDS011;72317;37.280;-121.948;2024-01-27T14:06:56;2.10;;;0.82;;
82635;SDS011;72317;37.280;-121.948;2024-01-27T14:11:56;4.28;;;0.80;;
82635;SDS011;72317;37.280;-121.948;2024-01-27T14:16:57;1.75;;;0.70;;
82635;SDS011;72317;37.280;-121.948;2024-01-27T14:21:58;5.85;;;0.70;;
82635;SDS011;72317;37.280;-121.948;2024-01-27T14:26:59;1.27;;;0.73;;
82635;SDS011;72317;37.280;-121.948;2024-01-27T14:32:00;5.05;;;0.98;;
82635;SDS011;72317;37.280;-121.948;2024-01-27T14:37:02;1.25;;;0.70;;
82635;SDS011;72317;37.280;-121.948;2024-01-27T14:42:04;6.22;;;1.10;;
82635;SDS011;72317;37.280;-121.948;2024-01-27T14:47:05;3.47;;;1.00;;
82635;SDS011;72317;37.280;-121.948;2024-01-27T14:52:08;2.65;;;0.93;;
82635;SDS011;72317;37.280;-121.948;2024-01-27T14:57:09;4.55;;;1.10;;
82635;SDS011;72317;37.280;-121.948;2024-01-27T15:02:09;9.18;;;1.40;;
82635;SDS011;72317;37.280;-121.948;2024-01-27T15:07:10;4.70;;;1.23;;
82635;SDS011;72317;37.280;-121.948;2024-01-27T15:12:11;3.92;;;1.23;;
82635;SDS011;72317;37.280;-121.948;2024-01-27T15:17:12;5.15;;;0.95;;
82635;SDS011;72317;37.280;-121.948;2024-01-27T15:22:12;2.88;;;1.00;;
82635;SDS011;72317;37.280;-121.948;2024-01-27T15:27:13;1.52;;;0.90;;
82635;SDS011;72317;37.280;-121.948;2024-01-27T15:32:14;4.18;;;1.05;;
82635;SDS011;72317;37.280;-121.948;2024-01-27T15:37:15;5.80;;;1.00;;
82635;SDS011;72317;37.280;-121.948;2024-01-27T15:42:16;3.78;;;1.30;;
82635;SDS011;72317;37.280;-121.948;2024-01-27T15:47:17;4.88;;;1.13;;
82635;SDS011;72317;37.280;-121.948;2024-01-27T15:52:18;4.85;;;1.10;;
82635;SDS011;72317;37.280;-121.948;2024-01-27T15:57:19;4.63;;;0.95;;
82635;SDS011;72317;37.280;-121.948;2024-01-27T16:02:20;2.92;;;1.00;;
82635;SDS011;72317;37.280;-121.948;2024-01-27T16:07:21;2.72;;;1.00;;
82635;SDS011;72317;37.280;-121.948;2024-01-27T16:12:21;3.55;;;1.02;;
82635;SDS011;72317;37.280;-121.948;2024-01-27T16:17:22;6.28;;;1.55;;
82635;SDS011;72317;37.280;-121.948;2024-01-27T16:22:23;1.88;;;0.80;;
82635;SDS011;72317;37.280;-121.948;2024-01-27T16:27:24;4.10;;;0.95;;
82635;SDS011;72317;37.280;-121.948;2024-01-27T16:32:24;3.25;;;0.93;;
82635;SDS011;72317;37.280;-121.948;2024-01-27T16:37:25;2.05;;;0.80;;
82635;SDS011;72317;37.280;-121.948;2024-01-27T16:42:26;1.83;;;1.00;;
82635;SDS011;72317;37.280;-121.948;2024-01-27T16:47:27;4.47;;;1.13;;
82635;SDS011;72317;37.280;-121.948;2024-01-27T16:52:28;2.60;;;1.27;;
82635;SDS011;72317;37.280;-121.948;2024-01-27T16:57:28;5.72;;;1.50;;
82635;SDS011;72317;37.280;-121.948;2024-01-27T17:02:29;6.18;;;1.80;;
82635;SDS011;72317;37.280;-121.948;2024-01-27T17:07:30;3.97;;;1.75;;
82635;SDS011;72317;37.280;-121.948;2024-01-27T17:12:31;5.28;;;2.13;;
82635;SDS011;72317;37.280;-121.948;2024-01-27T17:17:32;5.47;;;2.25;;
82635;SDS011;72317;37.280;-121.948;2024-01-27T17:22:34;7.88;;;2.50;;
82635;SDS011;72317;37.280;-121.948;2024-01-27T17:27:35;6.88;;;2.47;;
82635;SDS011;72317;37.280;-121.948;2024-01-27T17:32:36;4.90;;;2.40;;
82635;SDS011;72317;37.280;-121.948;2024-01-27T17:37:37;6.47;;;2.10;;
82635;SDS011;72317;37.280;-121.948;2024-01-27T17:42:42;4.53;;;2.22;;
82635;SDS011;72317;37.280;-121.948;2024-01-27T17:47:43;5.53;;;2.30;;
82635;SDS011;72317;37.280;-121.948;2024-01-27T17:52:44;3.83;;;2.33;;
82635;SDS011;72317;37.280;-121.948;2024-01-27T17:57:44;8.15;;;3.05;;
82635;SDS011;72317;37.280;-121.948;2024-01-27T18:02:45;6.43;;;3.33;;
82635;SDS011;72317;37.280;-121.948;2024-01-27T18:07:46;7.60;;;3.00;;
82635;SDS011;72317;37.280;-121.948;2024-01-27T18:12:47;5.97;;;2.80;;
82635;SDS011;72317;37.280;-121.948;2024-01-27T18:17:47;6.15;;;3.33;;
82635;SDS011;72317;37.280;-121.948;2024-01-27T18:22:48;6.32;;;3.22;;
82635;SDS011;72317;37.280;-121.948;2024-01-27T18:27:49;6.75;;;2.85;;
82635;SDS011;72317;37.280;-121.948;2024-01-27T18:32:50;7.35;;;3.03;;
82635;SDS011;72317;37.280;-121.948;2024-01-27T18:37:51;7.63;;;3.00;;
82635;SDS011;72317;37.280;-121.948;2024-01-27T18:42:51;5.30;;;2.63;;
82635;SDS011;72317;37.280;-121.948;2024-01-27T18:47:52;7.72;;;3.13;;
82635;SDS011;72317;37.280;-121.948;2024-01-27T18:52:53;6.53;;;3.10;;
82635;SDS011;72317;37.280;-121.948;2024-01-27T18:57:54;7.03;;;3.13;;
82635;SDS011;72317;37.280;-121.948;2024-01-27T19:02:54;7.97;;;3.13;;
82635;SDS011;72317;37.280;-121.948;2024-01-27T19:07:55;6.72;;;2.97;;
82635;SDS011;72317;37.280;-121.948;2024-01-27T19:12:56;7.05;;;3.00;;
82635;SDS011;72317;37.280;-121.948;2024-01-27T19:17:57;6.78;;;3.50;;
82635;SDS011;72317;37.280;-121.948;2024-01-27T19:22:57;7.03;;;3.08;;
82635;SDS011;72317;37.280;-121.948;2024-01-27T19:27:58;8.73;;;3.20;;
82635;SDS011;72317;37.280;-121.948;2024-01-27T19:32:59;8.20;;;3.33;;
82635;SDS011;72317;37.280;-121.948;2024-01-27T19:38:00;9.40;;;2.88;;
82635;SDS011;72317;37.280;-121.948;2024-01-27T19:43:01;4.53;;;3.25;;
82635;SDS011;72317;37.280;-121.948;2024-01-27T19:48:02;7.13;;;3.08;;
82635;SDS011;72317;37.280;-121.948;2024-01-27T19:53:03;6.95;;;3.40;;
82635;SDS011;72317;37.280;-121.948;2024-01-27T19:58:04;9.23;;;3.30;;
82635;SDS011;72317;37.280;-121.948;2024-01-27T20:03:05;7.78;;;3.35;;
82635;SDS011;72317;37.280;-121.948;2024-01-27T20:08:05;9.93;;;3.40;;
82635;SDS011;72317;37.280;-121.948;2024-01-27T20:13:06;10.20;;;3.35;;
82635;SDS011;72317;37.280;-121.948;2024-01-27T20:18:07;6.40;;;3.63;;
82635;SDS011;72317;37.280;-121.948;2024-01-27T20:23:08;8.60;;;3.58;;
82635;SDS011;72317;37.280;-121.948;2024-01-27T20:28:08;6.20;;;3.20;;
82635;SDS011;72317;37.280;-121.948;2024-01-27T20:33:09;5.65;;;3.42;;
82635;SDS011;72317;37.280;-121.948;2024-01-27T20:38:10;8.98;;;4.18;;
82635;SDS011;72317;37.280;-121.948;2024-01-27T20:43:11;6.65;;;3.75;;
82635;SDS011;72317;37.280;-121.948;2024-01-27T20:48:12;7.80;;;3.60;;
82635;SDS011;72317;37.280;-121.948;2024-01-27T20:53:12;8.20;;;4.18;;
82635;SDS011;72317;37.280;-121.948;2024-01-27T20:58:13;7.60;;;3.28;;
82635;SDS011;72317;37.280;-121.948;2024-01-27T21:03:14;6.53;;;3.60;;
82635;SDS011;72317;37.280;-121.948;2024-01-27T21:08:15;9.20;;;3.40;;
82635;SDS011;72317;37.280;-121.948;2024-01-27T21:13:16;8.43;;;4.10;;
82635;SDS011;72317;37.280;-121.948;2024-01-27T21:18:17;9.30;;;3.63;;
82635;SDS011;72317;37.280;-121.948;2024-01-27T21:23:17;8.65;;;4.15;;
82635;SDS011;72317;37.280;-121.948;2024-01-27T21:28:18;6.43;;;3.63;;
82635;SDS011;72317;37.280;-121.948;2024-01-27T21:33:19;10.70;;;4.07;;
82635;SDS011;72317;37.280;-121.948;2024-01-27T21:38:20;7.65;;;3.72;;
82635;SDS011;72317;37.280;-121.948;2024-01-27T21:43:20;7.65;;;3.58;;
82635;SDS011;72317;37.280;-121.948;2024-01-27T21:48:21;8.60;;;3.78;;
82635;SDS011;72317;37.280;-121.948;2024-01-27T21:53:22;6.60;;;3.70;;
82635;SDS011;72317;37.280;-121.948;2024-01-27T21:58:23;6.82;;;3.30;;
82635;SDS011;72317;37.280;-121.948;2024-01-27T22:03:23;9.98;;;3.85;;
82635;SDS011;72317;37.280;-121.948;2024-01-27T22:08:24;8.98;;;3.33;;
82635;SDS011;72317;37.280;-121.948;2024-01-27T22:13:25;10.65;;;3.53;;
82635;SDS011;72317;37.280;-121.948;2024-01-27T22:18:26;7.45;;;3.60;;
82635;SDS011;72317;37.280;-121.948;2024-01-27T22:23:26;6.45;;;3.10;;
82635;SDS011;72317;37.280;-121.948;2024-01-27T22:28:28;7.00;;;3.53;;
82635;SDS011;72317;37.280;-121.948;2024-01-27T22:33:29;8.18;;;3.60;;
82635;SDS011;72317;37.280;-121.948;2024-01-27T22:38:29;10.65;;;3.15;;
82635;SDS011;72317;37.280;-121.948;2024-01-27T22:43:30;10.38;;;3.50;;
82635;SDS011;72317;37.280;-121.948;2024-01-27T22:48:31;11.15;;;3.10;;
82635;SDS011;72317;37.280;-121.948;2024-01-27T22:53:32;8.65;;;2.63;;
82635;SDS011;72317;37.280;-121.948;2024-01-27T22:58:33;5.25;;;2.92;;
82635;SDS011;72317;37.280;-121.948;2024-01-27T23:03:33;8.65;;;3.13;;
82635;SDS011;72317;37.280;-121.948;2024-01-27T23:08:34;8.48;;;2.95;;
82635;SDS011;72317;37.280;-121.948;2024-01-27T23:13:35;6.60;;;2.90;;
82635;SDS011;72317;37.280;-121.948;2024-01-27T23:18:36;8.90;;;3.00;;
82635;SDS011;72317;37.280;-121.948;2024-01-27T23:23:37;6.88;;;2.67;;
82635;SDS011;72317;37.280;-121.948;2024-01-27T23:28:38;7.70;;;2.47;;
82635;SDS011;72317;37.280;-121.948;2024-01-27T23:33:39;9.48;;;2.83;;
82635;SDS011;72317;37.280;-121.948;2024-01-27T23:38:40;7.90;;;2.75;;
82635;SDS011;72317;37.280;-121.948;2024-01-27T23:43:41;7.82;;;3.00;;
82635;SDS011;72317;37.280;-121.948;2024-01-27T23:48:42;5.30;;;2.50;;
82635;SDS011;72317;37.280;-121.948;2024-01-27T23:53:43;10.25;;;2.90;;
82635;SDS011;72317;37.280;-121.948;2024-01-27T23:58:43;4.40;;;2.28;;
